Blue Phoenix — 3ENL7 — position and weather

sailwx.info

Track history (hours):
 
Tides and Currents Weather Stations Pressure Air Temp Water Temp Dewpoint Dewpoint Depression Visibility Wind Speed Wind Dir Waves Ship Positions

Blue Phoenix

Last reported at 2018-Apr-21 13:43 UTC. Time now 2018-Apr-22 06:40 UTC.
Position N 34°01' E 129°46'.

Length 96 m; draft 4.5 m.

Type: Ship. MMSI: 353874000.

Date/timePositionNaut miles runAvg speedWind from/ knotsBaromVisibWave heightAir tempDewpointWater temp
2018-Apr-21 13:43N 34°01' E 129°46'913.7
2018-Apr-21 13:04N 34°01' E 129°56'113.6
2018-Apr-21 13:00N 34°01' E 129°58'713.4
2018-Apr-21 12:30N 34°02' E 130°06'713.7
2018-Apr-21 12:00N 34°02' E 130°14'713.7
2018-Apr-21 11:30N 34°03' E 130°22'713.4
2018-Apr-21 11:01N 34°03' E 130°30'713.0
2018-Apr-21 10:31N 34°03' E 130°38'712.8
2018-Apr-21 10:00N 34°03' E 130°46'612.5
2018-Apr-21 09:30N 33°60' E 130°52'510.4
2018-Apr-21 09:00N 33°55' E 130°54'3 6.9
2018-Apr-21 08:31N 33°57' E 130°57'4 7.9
2018-Apr-21 08:01N 33°58' E 131°02'612.3
2018-Apr-21 07:30N 33°55' E 131°08'612.2
2018-Apr-21 07:00N 33°52' E 131°14'612.7
2018-Apr-21 06:30N 33°50' E 131°22'613.0
2018-Apr-21 06:00N 33°49' E 131°29'612.8
2018-Apr-21 05:30N 33°48' E 131°37'612.5
2018-Apr-21 05:00N 33°45' E 131°44'612.4
2018-Apr-21 04:31N 33°40' E 131°47'612.7
2018-Apr-21 04:01N 33°34' E 131°51'913.2
2018-Apr-21 03:20N 33°26' E 131°55'513.5
2018-Apr-21 02:56N 33°21' E 131°58'7510.9
2018-Apr-20 20:04N 32°44' E 133°15'7213.4
2018-Apr-20 14:42N 33°03' E 134°38'312.1
2018-Apr-20 14:26N 33°04' E 134°41'1612.3
2018-Apr-20 13:08N 33°08' E 134°60'412.6
2018-Apr-20 12:47N 33°10' E 135°04'512.9
2018-Apr-20 12:24N 33°12' E 135°10'20112.8
2018-Apr-19 20:42N 34°30' E 138°53'312.2
2018-Apr-19 20:29N 34°31' E 138°56'612.3
2018-Apr-19 20:00N 34°36' E 139°01'712.9
2018-Apr-19 19:28N 34°41' E 139°07'612.4
2018-Apr-19 19:00N 34°45' E 139°11'612.8
2018-Apr-19 18:30N 34°50' E 139°16'712.7
2018-Apr-19 17:57N 34°55' E 139°22'512.3
2018-Apr-19 17:30N 34°58' E 139°28'612.3
2018-Apr-19 17:00N 35°02' E 139°34'612.4
2018-Apr-19 16:30N 35°06' E 139°40'612.1
2018-Apr-19 16:00N 35°10' E 139°45'612.0
2018-Apr-19 15:30N 35°16' E 139°46'612.5
2018-Apr-19 15:00N 35°22' E 139°42'611.6
2018-Apr-19 14:30N 35°26' E 139°46'612.1
2018-Apr-19 14:00N 35°30' E 139°52'612.0
2018-Apr-19 13:30N 35°34' E 139°57'510.2
2018-Apr-19 13:00N 35°39' E 139°58'2 0.2
2018-Apr-19 05:03N 35°40' E 139°56'0 1.5
2018-Apr-19 04:59N 35°40' E 139°57'2 5.3
2018-Apr-19 04:30N 35°38' E 139°58'510.8
2018-Apr-19 04:00N 35°33' E 139°58'3 6.0
2018-Apr-19 03:30N 35°30' E 139°59'0 0.1
2018-Apr-19 03:00N 35°30' E 139°59'0 0.1
2018-Apr-19 02:26N 35°30' E 139°59'0 0.1
2018-Apr-19 01:59N 35°30' E 139°59'0 0.0
2018-Apr-19 01:29N 35°30' E 139°59'0 0.0
2018-Apr-19 00:53N 35°30' E 139°59'0 0.0
2018-Apr-19 00:29N 35°30' E 139°59'0 0.0
2018-Apr-18 23:59N 35°30' E 139°59'0 0.0
2018-Apr-18 23:29N 35°30' E 139°59'0 0.0
2018-Apr-18 22:59N 35°30' E 139°59'0 0.0
2018-Apr-18 22:26N 35°30' E 139°59'0 0.0
2018-Apr-18 21:59N 35°30' E 139°59'0 0.1
2018-Apr-18 21:29N 35°30' E 139°59'0 0.0
2018-Apr-18 20:59N 35°30' E 139°59'0 0.0
2018-Apr-18 20:29N 35°30' E 139°59'0 0.1
2018-Apr-18 19:59N 35°30' E 139°59'0 0.0
2018-Apr-18 19:29N 35°30' E 139°59'0 0.1
2018-Apr-18 18:59N 35°30' E 139°59'0 0.0
2018-Apr-18 18:29N 35°30' E 139°59'0 0.1
2018-Apr-18 17:59N 35°30' E 139°59'0 0.0
2018-Apr-18 17:26N 35°30' E 139°59'0 0.1
2018-Apr-18 16:59N 35°30' E 139°59'0 0.1
2018-Apr-18 16:29N 35°30' E 139°59'0 0.0
2018-Apr-18 15:59N 35°30' E 139°59'0 0.1
2018-Apr-18 15:29N 35°30' E 139°59'0 0.0
2018-Apr-18 14:59N 35°30' E 139°59'0 0.1
2018-Apr-18 14:28N 35°30' E 139°59'2 3.4
2018-Apr-18 14:00N 35°31' E 139°58'5 9.9
2018-Apr-18 13:30N 35°35' E 140°02'3 5.7
2018-Apr-18 12:59N 35°36' E 140°05'0 0.0
2018-Apr-18 12:27N 35°36' E 140°05'0 0.0
2018-Apr-18 12:01N 35°36' E 140°05'0 0.0
2018-Apr-18 11:31N 35°36' E 140°05'0 0.0
2018-Apr-18 11:01N 35°36' E 140°05'0 0.0
2018-Apr-18 10:31N 35°36' E 140°05'0 0.0
2018-Apr-18 10:01N 35°36' E 140°05'0 0.0
2018-Apr-18 09:31N 35°36' E 140°05'0 0.0
2018-Apr-18 09:01N 35°36' E 140°05'0 0.0
2018-Apr-18 08:31N 35°36' E 140°05'0 0.0
2018-Apr-18 08:01N 35°36' E 140°05'0 0.0
2018-Apr-18 07:31N 35°36' E 140°05'0 0.0
2018-Apr-18 07:01N 35°36' E 140°05'1 1.2
2018-Apr-18 06:30N 35°36' E 140°05'4 7.4
2018-Apr-18 06:01N 35°34' E 140°01'4 8.4
2018-Apr-18 05:30N 35°33' E 139°56'1 2.1
2018-Apr-18 04:59N 35°32' E 139°56'3 6.2
2018-Apr-18 04:30N 35°29' E 139°53'4 8.8
2018-Apr-18 04:00N 35°27' E 139°49'5 9.6
2018-Apr-18 03:30N 35°23' E 139°46'5 9.5
2018-Apr-18 03:00N 35°18' E 139°45'5 9.6
2018-Apr-18 02:30N 35°13' E 139°47'5 9.3
2018-Apr-18 02:00N 35°09' E 139°46'610.9
2018-Apr-18 01:30N 35°04' E 139°44'510.6
2018-Apr-18 01:00N 35°00' E 139°39'510.8
2018-Apr-18 00:30N 34°57' E 139°33'910.6
2018-Apr-17 23:38N 34°52' E 139°24'210.2
2018-Apr-17 23:27N 34°51' E 139°22'5 9.9
2018-Apr-17 22:57N 34°48' E 139°18'5 9.9
2018-Apr-17 22:26N 34°44' E 139°14'5 9.7
2018-Apr-17 21:55N 34°40' E 139°09'4 9.0
2018-Apr-17 21:30N 34°38' E 139°05'5 9.2
2018-Apr-17 21:00N 34°35' E 139°01'4 8.8
2018-Apr-17 20:30N 34°32' E 138°57'11 8.4
2018-Apr-17 19:11N 34°30' E 138°44'2 9.4
2018-Apr-17 18:56N 34°30' E 138°41'7 9.3
2018-Apr-17 18:09N 34°30' E 138°32'3 9.0
2018-Apr-17 17:47N 34°30' E 138°28'5 9.0
2018-Apr-17 17:16N 34°29' E 138°23'3 8.7
2018-Apr-17 16:58N 34°29' E 138°19'5210.4
2018-Apr-17 11:59N 34°31' E 137°16'611.5
2018-Apr-17 11:29N 34°31' E 137°09'1611.5
2018-Apr-17 10:04N 34°39' E 136°52'111.3
2018-Apr-17 09:58N 34°39' E 136°51'511.2
2018-Apr-17 09:30N 34°44' E 136°48'612.1
2018-Apr-17 09:00N 34°50' E 136°46'612.5
2018-Apr-17 08:30N 34°56' E 136°46'611.7
2018-Apr-17 08:00N 35°01' E 136°50'3 5.4
2018-Apr-17 07:31N 35°03' E 136°52'0 0.0
2018-Apr-17 07:00N 35°03' E 136°52'0 0.0
2018-Apr-17 06:29N 35°03' E 136°52'0 0.0
2018-Apr-17 05:59N 35°03' E 136°52'0 0.0
2018-Apr-17 05:29N 35°03' E 136°52'0 0.0
2018-Apr-17 04:59N 35°03' E 136°52'0 0.0
2018-Apr-17 04:29N 35°03' E 136°52'0 0.4
2018-Apr-17 04:00N 35°03' E 136°52'3 6.0
2018-Apr-17 03:30N 35°01' E 136°49'5 8.9
2018-Apr-17 02:58N 34°57' E 136°45'0 0.1
2018-Apr-17 02:28N 34°57' E 136°45'0 0.0
2018-Apr-17 01:58N 34°57' E 136°45'1 3.0
2018-Apr-17 01:30N 34°56' E 136°46'611.4
2018-Apr-17 01:00N 34°50' E 136°47'611.5
2018-Apr-17 00:30N 34°45' E 136°49'611.5
2018-Apr-17 00:00N 34°40' E 136°53'1211.0
2018-Apr-16 22:55N 34°32' E 137°03'2911.5
2018-Apr-16 20:24N 34°06' E 136°48'88 9.6
2018-Apr-16 11:14N 33°46' E 135°05'312.3
2018-Apr-16 11:00N 33°48' E 135°03'612.3
2018-Apr-16 10:31N 33°53' E 134°60'612.2
2018-Apr-16 10:00N 33°60' E 134°59'612.1
2018-Apr-16 09:30N 34°06' E 134°59'612.6
2018-Apr-16 09:01N 34°12' E 134°59'612.3
2018-Apr-16 08:30N 34°18' E 134°59'611.9
2018-Apr-16 08:01N 34°24' E 135°01'612.4
2018-Apr-16 07:31N 34°29' E 135°04'612.5
2018-Apr-16 07:00N 34°35' E 135°08'4 8.2
2018-Apr-16 06:31N 34°39' E 135°09'0 0.0
2018-Apr-16 06:00N 34°39' E 135°09'0 0.0
2018-Apr-16 05:30N 34°39' E 135°09'0 0.0
2018-Apr-16 04:57N 34°39' E 135°09'0 0.0
2018-Apr-16 04:27N 34°39' E 135°09'0 0.0
2018-Apr-16 04:00N 34°39' E 135°09'0 0.0
2018-Apr-16 03:30N 34°39' E 135°09'0 0.0
2018-Apr-16 03:00N 34°39' E 135°09'0 0.0
2018-Apr-16 02:30N 34°39' E 135°09'0 0.0
2018-Apr-16 02:00N 34°39' E 135°09'0 0.0
2018-Apr-16 01:30N 34°39' E 135°09'0 0.0
2018-Apr-16 01:00N 34°39' E 135°09'0 0.0
2018-Apr-16 00:30N 34°39' E 135°09'0 0.0
2018-Apr-16 00:00N 34°39' E 135°09'1 1.3
2018-Apr-15 23:30N 34°38' E 135°10'0 0.1
2018-Apr-15 23:00N 34°38' E 135°10'0 0.0
2018-Apr-15 22:30N 34°38' E 135°10'0 0.0
2018-Apr-15 22:00N 34°38' E 135°10'0 0.0
2018-Apr-15 21:30N 34°38' E 135°10'0 0.0
2018-Apr-15 21:00N 34°38' E 135°10'0 0.0
2018-Apr-15 20:30N 34°38' E 135°10'0 0.0
2018-Apr-15 20:00N 34°38' E 135°10'0 0.1
2018-Apr-15 19:30N 34°38' E 135°10'0 0.0
2018-Apr-15 19:00N 34°38' E 135°10'0 0.0
2018-Apr-15 18:30N 34°38' E 135°10'0 0.1
2018-Apr-15 18:00N 34°38' E 135°10'0 0.1
2018-Apr-15 17:30N 34°38' E 135°10'0 0.0
2018-Apr-15 17:00N 34°38' E 135°10'0 0.0
2018-Apr-15 16:30N 34°38' E 135°10'0 0.0
2018-Apr-15 16:00N 34°38' E 135°10'0 0.1
2018-Apr-15 15:30N 34°38' E 135°10'0 0.1
2018-Apr-15 15:00N 34°38' E 135°10'0 0.0
2018-Apr-15 14:30N 34°38' E 135°10'0 0.0
2018-Apr-15 14:00N 34°38' E 135°10'0 0.0
2018-Apr-15 13:30N 34°38' E 135°10'0 0.0
2018-Apr-15 13:00N 34°38' E 135°10'0 0.0
2018-Apr-15 12:30N 34°38' E 135°10'1 1.0
2018-Apr-15 12:00N 34°38' E 135°10'4 8.1
2018-Apr-15 11:31N 34°37' E 135°15'4 7.5
2018-Apr-15 11:00N 34°41' E 135°15'1 2.8
2018-Apr-15 10:30N 34°42' E 135°15'0 0.0
2018-Apr-15 10:00N 34°42' E 135°15'0 0.0
2018-Apr-15 09:30N 34°42' E 135°15'0 0.0
2018-Apr-15 09:00N 34°42' E 135°15'0 0.0
2018-Apr-15 08:30N 34°42' E 135°15'0 0.0
2018-Apr-15 08:00N 34°42' E 135°15'0 0.0
2018-Apr-15 07:30N 34°42' E 135°15'0 0.0
2018-Apr-15 07:00N 34°42' E 135°15'0 0.0
2018-Apr-15 06:30N 34°42' E 135°15'0 0.0
2018-Apr-15 06:00N 34°42' E 135°15'0 0.0
2018-Apr-15 05:30N 34°42' E 135°15'2 4.5
2018-Apr-15 05:00N 34°40' E 135°15'3 5.0
2018-Apr-15 04:30N 34°38' E 135°18'0 0.6
2018-Apr-15 04:00N 34°38' E 135°18'1 2.1
2018-Apr-15 03:30N 34°37' E 135°17'510.6
2018-Apr-15 03:00N 34°35' E 135°11'612.1
2018-Apr-15 02:30N 34°35' E 135°04'612.4
2018-Apr-15 02:00N 34°36' E 134°57'611.7
2018-Apr-15 01:30N 34°34' E 134°50'611.3
2018-Apr-15 01:00N 34°31' E 134°44'611.9
2018-Apr-15 00:30N 34°29' E 134°37'611.9
2018-Apr-15 00:00N 34°27' E 134°30'611.6
2018-Apr-14 23:30N 34°25' E 134°24'811.3
2018-Apr-14 22:46N 34°24' E 134°14'310.7
2018-Apr-14 22:28N 34°25' E 134°10'25 9.9
2018-Apr-14 19:56N 34°18' E 133°41'49 9.2
2018-Apr-14 14:40N 34°01' E 132°46'210.9
2018-Apr-14 14:30N 33°60' E 132°45'611.8
2018-Apr-14 14:00N 33°55' E 132°40'712.0
2018-Apr-14 13:24N 33°50' E 132°34'1112.4
2018-Apr-14 12:33N 33°45' E 132°23'212.8
2018-Apr-14 12:24N 33°44' E 132°21'2411.8
2018-Apr-14 10:24N 33°44' E 131°52'411.6
2018-Apr-14 10:00N 33°45' E 131°47'611.0
2018-Apr-14 09:30N 33°46' E 131°40'510.8
2018-Apr-14 09:00N 33°47' E 131°34'510.9
2018-Apr-14 08:30N 33°48' E 131°27'510.8
2018-Apr-14 08:00N 33°49' E 131°21'510.7
2018-Apr-14 07:30N 33°51' E 131°15'510.3
2018-Apr-14 07:00N 33°53' E 131°09'611.1
2018-Apr-14 06:30N 33°56' E 131°04'510.5
2018-Apr-14 06:00N 33°58' E 130°58'510.2
2018-Apr-14 05:30N 33°55' E 130°53'510.3
2018-Apr-14 05:00N 34°00' E 130°51'611.1
2018-Apr-14 04:30N 34°03' E 130°46'611.1
2018-Apr-14 04:00N 34°04' E 130°39'611.9
2018-Apr-14 03:30N 34°04' E 130°32'612.0
2018-Apr-14 03:00N 34°04' E 130°25'612.1
2018-Apr-14 02:30N 34°03' E 130°17'611.9
2018-Apr-14 02:00N 34°03' E 130°10'  
Track history (hours):
 
Tides and Currents Weather Stations Pressure Air Temp Water Temp Dewpoint Dewpoint Depression Visibility Wind Speed Wind Dir Waves Ship Positions

Blue Phoenix

Last reported at 2018-Apr-21 13:43 UTC. Time now 2018-Apr-22 06:40 UTC.
Position N 34°01' E 129°46'.

Length 96 m; draft 4.5 m.

Type: Ship. MMSI: 353874000.

Date/timePositionNaut miles runAvg speedWind from/ knotsBaromVisibWave heightAir tempDewpointWater temp
2018-Apr-21 13:43N 34°01' E 129°46'913.7
2018-Apr-21 13:04N 34°01' E 129°56'113.6
2018-Apr-21 13:00N 34°01' E 129°58'713.4
2018-Apr-21 12:30N 34°02' E 130°06'713.7
2018-Apr-21 12:00N 34°02' E 130°14'713.7
2018-Apr-21 11:30N 34°03' E 130°22'713.4
2018-Apr-21 11:01N 34°03' E 130°30'713.0
2018-Apr-21 10:31N 34°03' E 130°38'712.8
2018-Apr-21 10:00N 34°03' E 130°46'612.5
2018-Apr-21 09:30N 33°60' E 130°52'510.4
2018-Apr-21 09:00N 33°55' E 130°54'3 6.9
2018-Apr-21 08:31N 33°57' E 130°57'4 7.9
2018-Apr-21 08:01N 33°58' E 131°02'612.3
2018-Apr-21 07:30N 33°55' E 131°08'612.2
2018-Apr-21 07:00N 33°52' E 131°14'612.7
2018-Apr-21 06:30N 33°50' E 131°22'613.0
2018-Apr-21 06:00N 33°49' E 131°29'612.8
2018-Apr-21 05:30N 33°48' E 131°37'612.5
2018-Apr-21 05:00N 33°45' E 131°44'612.4
2018-Apr-21 04:31N 33°40' E 131°47'612.7
2018-Apr-21 04:01N 33°34' E 131°51'913.2
2018-Apr-21 03:20N 33°26' E 131°55'513.5
2018-Apr-21 02:56N 33°21' E 131°58'7510.9
2018-Apr-20 20:04N 32°44' E 133°15'7213.4
2018-Apr-20 14:42N 33°03' E 134°38'312.1
2018-Apr-20 14:26N 33°04' E 134°41'1612.3
2018-Apr-20 13:08N 33°08' E 134°60'412.6
2018-Apr-20 12:47N 33°10' E 135°04'512.9
2018-Apr-20 12:24N 33°12' E 135°10'20112.8
2018-Apr-19 20:42N 34°30' E 138°53'312.2
2018-Apr-19 20:29N 34°31' E 138°56'612.3
2018-Apr-19 20:00N 34°36' E 139°01'712.9
2018-Apr-19 19:28N 34°41' E 139°07'612.4
2018-Apr-19 19:00N 34°45' E 139°11'612.8
2018-Apr-19 18:30N 34°50' E 139°16'712.7
2018-Apr-19 17:57N 34°55' E 139°22'512.3
2018-Apr-19 17:30N 34°58' E 139°28'612.3
2018-Apr-19 17:00N 35°02' E 139°34'612.4
2018-Apr-19 16:30N 35°06' E 139°40'612.1
2018-Apr-19 16:00N 35°10' E 139°45'612.0
2018-Apr-19 15:30N 35°16' E 139°46'612.5
2018-Apr-19 15:00N 35°22' E 139°42'611.6
2018-Apr-19 14:30N 35°26' E 139°46'612.1
2018-Apr-19 14:00N 35°30' E 139°52'612.0
2018-Apr-19 13:30N 35°34' E 139°57'510.2
2018-Apr-19 13:00N 35°39' E 139°58'2 0.2
2018-Apr-19 05:03N 35°40' E 139°56'0 1.5
2018-Apr-19 04:59N 35°40' E 139°57'2 5.3
2018-Apr-19 04:30N 35°38' E 139°58'510.8
2018-Apr-19 04:00N 35°33' E 139°58'3 6.0
2018-Apr-19 03:30N 35°30' E 139°59'0 0.1
2018-Apr-19 03:00N 35°30' E 139°59'0 0.1
2018-Apr-19 02:26N 35°30' E 139°59'0 0.1
2018-Apr-19 01:59N 35°30' E 139°59'0 0.0
2018-Apr-19 01:29N 35°30' E 139°59'0 0.0
2018-Apr-19 00:53N 35°30' E 139°59'0 0.0
2018-Apr-19 00:29N 35°30' E 139°59'0 0.0
2018-Apr-18 23:59N 35°30' E 139°59'0 0.0
2018-Apr-18 23:29N 35°30' E 139°59'0 0.0
2018-Apr-18 22:59N 35°30' E 139°59'0 0.0
2018-Apr-18 22:26N 35°30' E 139°59'0 0.0
2018-Apr-18 21:59N 35°30' E 139°59'0 0.1
2018-Apr-18 21:29N 35°30' E 139°59'0 0.0
2018-Apr-18 20:59N 35°30' E 139°59'0 0.0
2018-Apr-18 20:29N 35°30' E 139°59'0 0.1
2018-Apr-18 19:59N 35°30' E 139°59'0 0.0
2018-Apr-18 19:29N 35°30' E 139°59'0 0.1
2018-Apr-18 18:59N 35°30' E 139°59'0 0.0
2018-Apr-18 18:29N 35°30' E 139°59'0 0.1
2018-Apr-18 17:59N 35°30' E 139°59'0 0.0
2018-Apr-18 17:26N 35°30' E 139°59'0 0.1
2018-Apr-18 16:59N 35°30' E 139°59'0 0.1
2018-Apr-18 16:29N 35°30' E 139°59'0 0.0
2018-Apr-18 15:59N 35°30' E 139°59'0 0.1
2018-Apr-18 15:29N 35°30' E 139°59'0 0.0
2018-Apr-18 14:59N 35°30' E 139°59'0 0.1
2018-Apr-18 14:28N 35°30' E 139°59'2 3.4
2018-Apr-18 14:00N 35°31' E 139°58'5 9.9
2018-Apr-18 13:30N 35°35' E 140°02'3 5.7
2018-Apr-18 12:59N 35°36' E 140°05'0 0.0
2018-Apr-18 12:27N 35°36' E 140°05'0 0.0
2018-Apr-18 12:01N 35°36' E 140°05'0 0.0
2018-Apr-18 11:31N 35°36' E 140°05'0 0.0
2018-Apr-18 11:01N 35°36' E 140°05'0 0.0
2018-Apr-18 10:31N 35°36' E 140°05'0 0.0
2018-Apr-18 10:01N 35°36' E 140°05'0 0.0
2018-Apr-18 09:31N 35°36' E 140°05'0 0.0
2018-Apr-18 09:01N 35°36' E 140°05'0 0.0
2018-Apr-18 08:31N 35°36' E 140°05'0 0.0
2018-Apr-18 08:01N 35°36' E 140°05'0 0.0
2018-Apr-18 07:31N 35°36' E 140°05'0 0.0
2018-Apr-18 07:01N 35°36' E 140°05'1 1.2
2018-Apr-18 06:30N 35°36' E 140°05'4 7.4
2018-Apr-18 06:01N 35°34' E 140°01'4 8.4
2018-Apr-18 05:30N 35°33' E 139°56'1 2.1
2018-Apr-18 04:59N 35°32' E 139°56'3 6.2
2018-Apr-18 04:30N 35°29' E 139°53'4 8.8
2018-Apr-18 04:00N 35°27' E 139°49'5 9.6
2018-Apr-18 03:30N 35°23' E 139°46'5 9.5
2018-Apr-18 03:00N 35°18' E 139°45'5 9.6
2018-Apr-18 02:30N 35°13' E 139°47'5 9.3
2018-Apr-18 02:00N 35°09' E 139°46'610.9
2018-Apr-18 01:30N 35°04' E 139°44'510.6
2018-Apr-18 01:00N 35°00' E 139°39'510.8
2018-Apr-18 00:30N 34°57' E 139°33'910.6
2018-Apr-17 23:38N 34°52' E 139°24'210.2
2018-Apr-17 23:27N 34°51' E 139°22'5 9.9
2018-Apr-17 22:57N 34°48' E 139°18'5 9.9
2018-Apr-17 22:26N 34°44' E 139°14'5 9.7
2018-Apr-17 21:55N 34°40' E 139°09'4 9.0
2018-Apr-17 21:30N 34°38' E 139°05'5 9.2
2018-Apr-17 21:00N 34°35' E 139°01'4 8.8
2018-Apr-17 20:30N 34°32' E 138°57'11 8.4
2018-Apr-17 19:11N 34°30' E 138°44'2 9.4
2018-Apr-17 18:56N 34°30' E 138°41'7 9.3
2018-Apr-17 18:09N 34°30' E 138°32'3 9.0
2018-Apr-17 17:47N 34°30' E 138°28'5 9.0
2018-Apr-17 17:16N 34°29' E 138°23'3 8.7
2018-Apr-17 16:58N 34°29' E 138°19'5210.4
2018-Apr-17 11:59N 34°31' E 137°16'611.5
2018-Apr-17 11:29N 34°31' E 137°09'1611.5
2018-Apr-17 10:04N 34°39' E 136°52'111.3
2018-Apr-17 09:58N 34°39' E 136°51'511.2
2018-Apr-17 09:30N 34°44' E 136°48'612.1
2018-Apr-17 09:00N 34°50' E 136°46'612.5
2018-Apr-17 08:30N 34°56' E 136°46'611.7
2018-Apr-17 08:00N 35°01' E 136°50'3 5.4
2018-Apr-17 07:31N 35°03' E 136°52'0 0.0
2018-Apr-17 07:00N 35°03' E 136°52'0 0.0
2018-Apr-17 06:29N 35°03' E 136°52'0 0.0
2018-Apr-17 05:59N 35°03' E 136°52'0 0.0
2018-Apr-17 05:29N 35°03' E 136°52'0 0.0
2018-Apr-17 04:59N 35°03' E 136°52'0 0.0
2018-Apr-17 04:29N 35°03' E 136°52'0 0.4
2018-Apr-17 04:00N 35°03' E 136°52'3 6.0
2018-Apr-17 03:30N 35°01' E 136°49'5 8.9
2018-Apr-17 02:58N 34°57' E 136°45'0 0.1
2018-Apr-17 02:28N 34°57' E 136°45'0 0.0
2018-Apr-17 01:58N 34°57' E 136°45'1 3.0
2018-Apr-17 01:30N 34°56' E 136°46'611.4
2018-Apr-17 01:00N 34°50' E 136°47'611.5
2018-Apr-17 00:30N 34°45' E 136°49'611.5
2018-Apr-17 00:00N 34°40' E 136°53'1211.0
2018-Apr-16 22:55N 34°32' E 137°03'2911.5
2018-Apr-16 20:24N 34°06' E 136°48'88 9.6
2018-Apr-16 11:14N 33°46' E 135°05'312.3
2018-Apr-16 11:00N 33°48' E 135°03'612.3
2018-Apr-16 10:31N 33°53' E 134°60'612.2
2018-Apr-16 10:00N 33°60' E 134°59'612.1
2018-Apr-16 09:30N 34°06' E 134°59'612.6
2018-Apr-16 09:01N 34°12' E 134°59'612.3
2018-Apr-16 08:30N 34°18' E 134°59'611.9
2018-Apr-16 08:01N 34°24' E 135°01'612.4
2018-Apr-16 07:31N 34°29' E 135°04'612.5
2018-Apr-16 07:00N 34°35' E 135°08'4 8.2
2018-Apr-16 06:31N 34°39' E 135°09'0 0.0
2018-Apr-16 06:00N 34°39' E 135°09'0 0.0
2018-Apr-16 05:30N 34°39' E 135°09'0 0.0
2018-Apr-16 04:57N 34°39' E 135°09'0 0.0
2018-Apr-16 04:27N 34°39' E 135°09'0 0.0
2018-Apr-16 04:00N 34°39' E 135°09'0 0.0
2018-Apr-16 03:30N 34°39' E 135°09'0 0.0
2018-Apr-16 03:00N 34°39' E 135°09'0 0.0
2018-Apr-16 02:30N 34°39' E 135°09'0 0.0
2018-Apr-16 02:00N 34°39' E 135°09'0 0.0
2018-Apr-16 01:30N 34°39' E 135°09'0 0.0
2018-Apr-16 01:00N 34°39' E 135°09'0 0.0
2018-Apr-16 00:30N 34°39' E 135°09'0 0.0
2018-Apr-16 00:00N 34°39' E 135°09'1 1.3
2018-Apr-15 23:30N 34°38' E 135°10'0 0.1
2018-Apr-15 23:00N 34°38' E 135°10'0 0.0
2018-Apr-15 22:30N 34°38' E 135°10'0 0.0
2018-Apr-15 22:00N 34°38' E 135°10'0 0.0
2018-Apr-15 21:30N 34°38' E 135°10'0 0.0
2018-Apr-15 21:00N 34°38' E 135°10'0 0.0
2018-Apr-15 20:30N 34°38' E 135°10'0 0.0
2018-Apr-15 20:00N 34°38' E 135°10'0 0.1
2018-Apr-15 19:30N 34°38' E 135°10'0 0.0
2018-Apr-15 19:00N 34°38' E 135°10'0 0.0
2018-Apr-15 18:30N 34°38' E 135°10'0 0.1
2018-Apr-15 18:00N 34°38' E 135°10'0 0.1
2018-Apr-15 17:30N 34°38' E 135°10'0 0.0
2018-Apr-15 17:00N 34°38' E 135°10'0 0.0
2018-Apr-15 16:30N 34°38' E 135°10'0 0.0
2018-Apr-15 16:00N 34°38' E 135°10'0 0.1
2018-Apr-15 15:30N 34°38' E 135°10'0 0.1
2018-Apr-15 15:00N 34°38' E 135°10'0 0.0
2018-Apr-15 14:30N 34°38' E 135°10'0 0.0
2018-Apr-15 14:00N 34°38' E 135°10'0 0.0
2018-Apr-15 13:30N 34°38' E 135°10'0 0.0
2018-Apr-15 13:00N 34°38' E 135°10'0 0.0
2018-Apr-15 12:30N 34°38' E 135°10'1 1.0
2018-Apr-15 12:00N 34°38' E 135°10'4 8.1
2018-Apr-15 11:31N 34°37' E 135°15'4 7.5
2018-Apr-15 11:00N 34°41' E 135°15'1 2.8
2018-Apr-15 10:30N 34°42' E 135°15'0 0.0
2018-Apr-15 10:00N 34°42' E 135°15'0 0.0
2018-Apr-15 09:30N 34°42' E 135°15'0 0.0
2018-Apr-15 09:00N 34°42' E 135°15'0 0.0
2018-Apr-15 08:30N 34°42' E 135°15'0 0.0
2018-Apr-15 08:00N 34°42' E 135°15'0 0.0
2018-Apr-15 07:30N 34°42' E 135°15'0 0.0
2018-Apr-15 07:00N 34°42' E 135°15'0 0.0
2018-Apr-15 06:30N 34°42' E 135°15'0 0.0
2018-Apr-15 06:00N 34°42' E 135°15'0 0.0
2018-Apr-15 05:30N 34°42' E 135°15'2 4.5
2018-Apr-15 05:00N 34°40' E 135°15'3 5.0
2018-Apr-15 04:30N 34°38' E 135°18'0 0.6
2018-Apr-15 04:00N 34°38' E 135°18'1 2.1
2018-Apr-15 03:30N 34°37' E 135°17'510.6
2018-Apr-15 03:00N 34°35' E 135°11'612.1
2018-Apr-15 02:30N 34°35' E 135°04'612.4
2018-Apr-15 02:00N 34°36' E 134°57'611.7
2018-Apr-15 01:30N 34°34' E 134°50'611.3
2018-Apr-15 01:00N 34°31' E 134°44'611.9
2018-Apr-15 00:30N 34°29' E 134°37'611.9
2018-Apr-15 00:00N 34°27' E 134°30'611.6
2018-Apr-14 23:30N 34°25' E 134°24'811.3
2018-Apr-14 22:46N 34°24' E 134°14'310.7
2018-Apr-14 22:28N 34°25' E 134°10'25 9.9
2018-Apr-14 19:56N 34°18' E 133°41'49 9.2
2018-Apr-14 14:40N 34°01' E 132°46'210.9
2018-Apr-14 14:30N 33°60' E 132°45'611.8
2018-Apr-14 14:00N 33°55' E 132°40'712.0
2018-Apr-14 13:24N 33°50' E 132°34'1112.4
2018-Apr-14 12:33N 33°45' E 132°23'212.8
2018-Apr-14 12:24N 33°44' E 132°21'2411.8
2018-Apr-14 10:24N 33°44' E 131°52'411.6
2018-Apr-14 10:00N 33°45' E 131°47'611.0
2018-Apr-14 09:30N 33°46' E 131°40'510.8
2018-Apr-14 09:00N 33°47' E 131°34'510.9
2018-Apr-14 08:30N 33°48' E 131°27'510.8
2018-Apr-14 08:00N 33°49' E 131°21'510.7
2018-Apr-14 07:30N 33°51' E 131°15'510.3
2018-Apr-14 07:00N 33°53' E 131°09'611.1
2018-Apr-14 06:30N 33°56' E 131°04'510.5
2018-Apr-14 06:00N 33°58' E 130°58'510.2
2018-Apr-14 05:30N 33°55' E 130°53'510.3
2018-Apr-14 05:00N 34°00' E 130°51'611.1
2018-Apr-14 04:30N 34°03' E 130°46'611.1
2018-Apr-14 04:00N 34°04' E 130°39'611.9
2018-Apr-14 03:30N 34°04' E 130°32'612.0
2018-Apr-14 03:00N 34°04' E 130°25'612.1
2018-Apr-14 02:30N 34°03' E 130°17'611.9
2018-Apr-14 02:00N 34°03' E 130°10'  

Dump ship's entire track history